Time;durP1;ratioP1;P1;durP2;ratioP2;P2;SDS_P1;SDS_P2;PMS_P1;PMS_P2;Temp;Humidity;BMP_temperature;BMP_pressure;BME280_temperature;BME280_humidity;BME280_pressure;Samples;Min_cycle;Max_cycle;Signal;HPM_P1;HPM_P2
2021/04/18 00:01:46;;;;;;;3.67;3.23;;;6.90;53.60;;;;;;4915551;29;20453;-71
2021/04/18 00:04:12;;;;;;;3.50;3.20;;;6.90;41.80;;;;;;4914961;29;20569;-72
2021/04/18 00:06:40;;;;;;;4.60;3.70;;;6.80;72.50;;;;;;4914988;29;20536;-72
2021/04/18 00:09:08;;;;;;;3.80;3.50;;;6.70;99.90;;;;;;4914431;29;20456;-72
2021/04/18 00:11:34;;;;;;;3.60;3.23;;;6.90;72.50;;;;;;4914709;29;20615;-72
2021/04/18 00:14:01;;;;;;;4.10;3.27;;;7.00;99.90;;;;;;4914170;29;20445;-71
2021/04/18 00:16:28;;;;;;;3.30;3.00;;;6.80;45.20;;;;;;4915125;29;20460;-72
2021/04/18 00:18:55;;;;;;;3.40;3.10;;;6.80;1.00;;;;;;4915046;29;20820;-68
2021/04/18 00:21:21;;;;;;;3.90;2.90;;;6.70;99.90;;;;;;4914982;29;20531;-72
2021/04/18 00:23:48;;;;;;;3.93;3.10;;;6.90;99.90;;;;;;4914728;29;21002;-72
2021/04/18 00:26:14;;;;;;;5.13;4.00;;;6.80;14.50;;;;;;4913750;29;20460;-71
2021/04/18 00:28:41;;;;;;;3.43;3.00;;;7.10;99.90;;;;;;4915183;29;20452;-72
2021/04/18 00:31:07;;;;;;;4.97;3.57;;;7.10;1.00;;;;;;4914158;29;20575;-74
2021/04/18 00:33:34;;;;;;;2.93;2.67;;;7.00;99.90;;;;;;4914990;29;20453;-72
2021/04/18 00:36:01;;;;;;;3.57;2.93;;;6.90;18.00;;;;;;4914055;29;20563;-71
2021/04/18 00:38:27;;;;;;;6.50;3.57;;;7.10;5.10;;;;;;4914575;29;20534;-72
2021/04/18 00:40:54;;;;;;;3.40;3.10;;;7.00;99.90;;;;;;4913991;29;20537;-67
2021/04/18 00:43:20;;;;;;;3.50;3.13;;;6.90;33.60;;;;;;4914601;29;20528;-72
2021/04/18 00:45:46;;;;;;;6.60;4.67;;;6.90;8.20;;;;;;4914521;29;20456;-72
2021/04/18 00:48:13;;;;;;;4.40;3.30;;;7.10;1.00;;;;;;4913377;29;20477;-71
2021/04/18 00:50:40;;;;;;;3.90;3.20;;;7.00;99.90;;;;;;4914513;29;20614;-72
2021/04/18 00:53:08;;;;;;;3.50;3.20;;;7.10;1.00;;;;;;4914099;29;20457;-72
2021/04/18 00:55:36;;;;;;;6.03;3.70;;;7.00;1.00;;;;;;4914189;29;20515;-71
2021/04/18 00:58:05;;;;;;;4.97;3.97;;;6.90;1.00;;;;;;4913347;29;20545;-71
2021/04/18 01:00:33;;;;;;;4.10;3.67;;;6.80;99.90;;;;;;4914883;29;20461;-71
2021/04/18 01:03:00;;;;;;;3.57;3.27;;;6.80;99.90;;;;;;4913970;29;20934;-71
2021/04/18 01:05:27;;;;;;;4.00;3.60;;;6.80;99.90;;;;;;4909824;29;20475;-72
2021/04/18 01:07:53;;;;;;;4.60;3.70;;;7.10;99.90;;;;;;4913900;29;20449;-67
2021/04/18 01:10:21;;;;;;;3.50;3.20;;;7.00;99.20;;;;;;4915079;29;20609;-72
2021/04/18 01:12:47;;;;;;;3.70;3.40;;;6.90;99.90;;;;;;4914832;29;20649;-72
2021/04/18 01:15:15;;;;;;;5.97;4.10;;;6.90;99.90;;;;;;4916248;29;20448;-71
2021/04/18 01:17:42;;;;;;;7.80;4.27;;;6.90;99.90;;;;;;4916177;29;20856;-71
2021/04/18 01:20:12;;;;;;;5.27;3.90;;;6.70;99.90;;;;;;4915042;29;20946;-71
2021/04/18 01:22:39;;;;;;;3.70;3.40;;;6.80;1.00;;;;;;4914251;29;20449;-70
2021/04/18 01:25:07;;;;;;;4.40;3.63;;;6.90;99.90;;;;;;4913880;29;20888;-71
2021/04/18 01:27:35;;;;;;;4.57;3.97;;;7.00;99.90;;;;;;4913635;29;20456;-71
2021/04/18 01:30:01;;;;;;;3.73;3.43;;;7.10;99.90;;;;;;4913385;29;20476;-71
2021/04/18 01:32:28;;;;;;;4.40;3.87;;;6.90;99.90;;;;;;4914660;29;20565;-71
2021/04/18 01:34:55;;;;;;;5.17;4.67;;;6.70;99.90;;;;;;4913392;29;20950;-67
2021/04/18 01:37:21;;;;;;;4.33;3.93;;;6.80;1.00;;;;;;4913580;29;20536;-71
2021/04/18 01:39:49;;;;;;;4.50;3.93;;;6.90;99.90;;;;;;4913769;29;20449;-71
2021/04/18 01:42:15;;;;;;;3.80;3.50;;;6.80;1.00;;;;;;4913757;29;20563;-71
2021/04/18 01:44:42;;;;;;;6.60;4.73;;;6.90;99.90;;;;;;4914349;29;20457;-71
2021/04/18 01:47:08;;;;;;;5.73;3.60;;;6.90;99.90;;;;;;4913142;29;20464;-72
2021/04/18 01:49:35;;;;;;;4.80;3.93;;;6.90;1.00;;;;;;4914281;29;20459;-71
2021/04/18 01:52:01;;;;;;;4.80;4.40;;;6.90;99.90;;;;;;4913097;29;20489;-71
2021/04/18 01:54:27;;;;;;;5.50;4.30;;;6.90;99.90;;;;;;4915287;29;20547;-72
2021/04/18 01:56:55;;;;;;;5.37;4.13;;;6.70;99.90;;;;;;4913401;29;20547;-67
2021/04/18 01:59:21;;;;;;;4.90;4.47;;;6.80;99.90;;;;;;4913968;29;20971;-72
2021/04/18 02:01:47;;;;;;;4.27;3.53;;;6.80;99.90;;;;;;4913774;29;21026;-71
2021/04/18 02:04:22;;;;;;;5.43;4.57;;;6.80;1.00;;;;;;4913110;29;20597;-72
2021/04/18 02:06:48;;;;;;;4.30;3.73;;;6.80;1.00;;;;;;4915724;29;21024;-71
2021/04/18 02:09:15;;;;;;;4.90;4.50;;;6.80;1.00;;;;;;4916638;29;21149;-71
2021/04/18 02:11:42;;;;;;;6.40;4.27;;;6.80;1.00;;;;;;4917439;29;20488;-72
2021/04/18 02:14:09;;;;;;;4.97;4.47;;;7.00;1.00;;;;;;4916213;29;20964;-71
2021/04/18 02:16:36;;;;;;;7.00;4.43;;;6.80;1.00;;;;;;4916757;29;20553;-71
2021/04/18 02:19:03;;;;;;;4.50;4.10;;;6.80;1.00;;;;;;4916407;29;20949;-71
2021/04/18 02:21:30;;;;;;;6.13;5.47;;;7.00;1.00;;;;;;4917086;29;20535;-70
2021/04/18 02:23:56;;;;;;;4.90;4.30;;;6.80;1.00;;;;;;4916123;29;20453;-69
2021/04/18 02:26:23;;;;;;;5.23;4.73;;;6.80;1.00;;;;;;4916269;29;20452;-71
2021/04/18 02:28:49;;;;;;;6.83;4.80;;;6.90;1.00;;;;;;4917187;29;20882;-72
2021/04/18 02:31:17;;;;;;;8.30;5.30;;;6.80;99.90;;;;;;4916206;29;21100;-71
2021/04/18 02:33:43;;;;;;;6.00;4.90;;;7.00;99.90;;;;;;4916644;29;20486;-71
2021/04/18 02:36:10;;;;;;;5.23;4.73;;;7.00;23.10;;;;;;4915574;29;20456;-72
2021/04/18 02:38:36;;;;;;;6.50;5.30;;;7.00;99.90;;;;;;4916554;29;20533;-72
2021/04/18 02:41:03;;;;;;;5.33;4.20;;;7.20;1.00;;;;;;4903142;29;20498;-70
2021/04/18 02:43:29;;;;;;;5.80;5.20;;;7.10;1.00;;;;;;4916750;29;20544;-69
2021/04/18 02:45:57;;;;;;;5.00;4.40;;;7.00;99.90;;;;;;4915729;29;21036;-68
2021/04/18 02:48:25;;;;;;;5.03;4.30;;;7.10;99.90;;;;;;4916522;29;20938;-70
2021/04/18 02:50:52;;;;;;;6.03;4.53;;;7.10;99.70;;;;;;4916399;29;20576;-70
2021/04/18 02:53:18;;;;;;;6.00;5.10;;;7.00;99.90;;;;;;4915856;29;20449;-71
2021/04/18 02:55:44;;;;;;;6.57;5.30;;;6.90;99.90;;;;;;4916190;29;20460;-70
2021/04/18 02:58:11;;;;;;;7.03;4.30;;;7.10;99.90;;;;;;4915563;29;20464;-72
2021/04/18 03:00:37;;;;;;;6.27;5.77;;;7.00;99.90;;;;;;4916758;29;20543;-72
2021/04/18 03:03:04;;;;;;;8.73;4.83;;;6.80;99.90;;;;;;4915568;29;20481;-70
2021/04/18 03:05:32;;;;;;;4.73;4.30;;;6.90;99.90;;;;;;4916053;29;20504;-70
2021/04/18 03:07:58;;;;;;;5.83;5.30;;;7.00;99.90;;;;;;4915780;29;20480;-71
2021/04/18 03:10:25;;;;;;;5.63;4.63;;;7.00;99.90;;;;;;4916653;29;20528;-71
2021/04/18 03:12:52;;;;;;;6.40;4.87;;;7.00;99.90;;;;;;4916670;29;20847;-71
2021/04/18 03:15:18;;;;;;;5.97;5.33;;;7.00;99.90;;;;;;4915755;29;20484;-70
2021/04/18 03:17:45;;;;;;;4.83;4.33;;;6.80;99.90;;;;;;4914742;29;20488;-72
2021/04/18 03:20:12;;;;;;;6.23;4.90;;;7.00;99.90;;;;;;4915348;29;21370;-70
2021/04/18 03:22:39;;;;;;;6.30;5.00;;;6.90;99.90;;;;;;4915823;29;20481;-70
2021/04/18 03:25:07;;;;;;;6.33;4.37;;;6.80;1.00;;;;;;4915269;29;20461;-71
2021/04/18 03:27:34;;;;;;;5.47;4.80;;;7.10;99.90;;;;;;4915673;29;20539;-71
2021/04/18 03:30:01;;;;;;;13.43;5.20;;;6.90;99.90;;;;;;4915331;29;20889;-71
2021/04/18 03:32:28;;;;;;;5.87;5.10;;;6.80;99.90;;;;;;4916142;29;20492;-70
2021/04/18 03:34:54;;;;;;;5.33;4.83;;;6.70;1.00;;;;;;4915308;29;20503;-68
2021/04/18 03:37:20;;;;;;;5.90;4.60;;;6.70;1.00;;;;;;4915759;29;20790;-70
2021/04/18 03:39:48;;;;;;;6.40;5.53;;;6.90;1.00;;;;;;4915862;29;20453;-70
2021/04/18 03:42:14;;;;;;;7.00;6.20;;;7.00;1.00;;;;;;4915174;29;20780;-71
2021/04/18 03:44:40;;;;;;;6.73;5.90;;;7.00;1.00;;;;;;4915532;29;20485;-70
2021/04/18 03:47:07;;;;;;;6.07;5.00;;;6.90;99.90;;;;;;4914278;29;20448;-72
2021/04/18 03:49:33;;;;;;;5.10;4.57;;;6.80;99.90;;;;;;4915969;29;20605;-72
2021/04/18 03:52:00;;;;;;;6.03;5.20;;;7.00;99.90;;;;;;4914806;29;20523;-68
2021/04/18 03:54:26;;;;;;;5.83;5.00;;;6.90;16.00;;;;;;4915184;29;21029;-70
2021/04/18 03:56:53;;;;;;;6.50;5.80;;;6.90;99.90;;;;;;4914431;29;20536;-68
2021/04/18 03:59:20;;;;;;;6.20;4.77;;;7.10;99.90;;;;;;4914537;29;20457;-70
2021/04/18 04:01:46;;;;;;;6.63;4.80;;;6.90;1.00;;;;;;4915014;29;20564;-71
2021/04/18 04:04:13;;;;;;;8.00;4.80;;;7.00;41.00;;;;;;4914782;29;20444;-72
2021/04/18 04:06:39;;;;;;;5.00;4.30;;;7.00;9.00;;;;;;4914797;29;20463;-72
2021/04/18 04:09:06;;;;;;;9.50;5.93;;;6.90;99.90;;;;;;4914394;29;20463;-71
2021/04/18 04:11:32;;;;;;;5.03;4.50;;;6.90;96.80;;;;;;4915157;29;20492;-74
2021/04/18 04:14:00;;;;;;;5.90;4.80;;;6.90;99.90;;;;;;4914201;29;21124;-71
2021/04/18 04:16:26;;;;;;;5.30;4.80;;;7.00;1.00;;;;;;4914851;29;20457;-73
2021/04/18 04:18:53;;;;;;;5.90;4.97;;;7.10;1.00;;;;;;4915186;29;20456;-67
2021/04/18 04:21:19;;;;;;;5.83;4.67;;;7.10;1.00;;;;;;4914550;29;20456;-74
2021/04/18 04:23:46;;;;;;;5.50;4.37;;;7.10;99.90;;;;;;4914579;29;20531;-71
2021/04/18 04:26:12;;;;;;;5.27;4.77;;;7.10;1.00;;;;;;4913171;29;20586;-75
2021/04/18 04:28:38;;;;;;;5.40;4.90;;;7.00;1.00;;;;;;4913984;29;20827;-71
2021/04/18 04:31:06;;;;;;;6.40;5.37;;;7.00;1.00;;;;;;4913063;29;20592;-71
2021/04/18 04:33:37;;;;;;;5.37;4.87;;;7.00;1.00;;;;;;4913679;29;20484;-73
2021/04/18 04:36:04;;;;;;;5.90;5.30;;;7.10;1.00;;;;;;4913124;29;20464;-73
2021/04/18 04:38:31;;;;;;;5.93;5.33;;;7.10;1.00;;;;;;4914053;29;20496;-72
2021/04/18 04:40:58;;;;;;;7.47;5.37;;;6.80;99.90;;;;;;4913679;29;20488;-73
2021/04/18 04:43:24;;;;;;;6.87;5.47;;;6.90;99.90;;;;;;4913797;29;20520;-72
2021/04/18 04:45:51;;;;;;;6.40;5.03;;;6.90;99.90;;;;;;4914006;29;20481;-72
2021/04/18 04:48:18;;;;;;;5.77;4.93;;;6.90;99.90;;;;;;4914264;29;20486;-73
2021/04/18 04:50:45;;;;;;;6.00;5.40;;;6.80;99.90;;;;;;4914318;29;20484;-73
2021/04/18 04:53:11;;;;;;;6.37;5.77;;;7.00;99.90;;;;;;4913817;29;20539;-72
2021/04/18 04:55:37;;;;;;;5.90;5.13;;;7.00;1.00;;;;;;4914220;29;20540;-73
2021/04/18 04:58:04;;;;;;;9.07;6.70;;;6.90;99.90;;;;;;4913420;29;20487;-73
2021/04/18 05:00:30;;;;;;;7.23;5.93;;;6.70;1.00;;;;;;4913856;29;20540;-72
2021/04/18 05:02:57;;;;;;;6.30;5.70;;;6.70;99.90;;;;;;4913468;29;20452;-72
2021/04/18 05:05:24;;;;;;;7.50;5.27;;;6.70;99.90;;;;;;4914681;29;20460;-73
2021/04/18 05:07:51;;;;;;;8.33;5.67;;;6.70;99.90;;;;;;4914340;29;20880;-73
2021/04/18 05:10:17;;;;;;;5.70;5.20;;;6.90;99.90;;;;;;4913929;29;20468;-73
2021/04/18 05:12:43;;;;;;;6.57;5.30;;;7.40;99.90;;;;;;4913811;29;20488;-71
2021/04/18 05:15:11;;;;;;;5.90;4.50;;;7.60;99.90;;;;;;4913369;29;20552;-73
2021/04/18 05:17:38;;;;;;;5.40;4.90;;;7.70;1.00;;;;;;4912902;29;20492;-72
2021/04/18 05:20:05;;;;;;;6.90;6.00;;;7.50;99.90;;;;;;4911975;29;20452;-73
2021/04/18 05:22:32;;;;;;;5.73;4.60;;;7.50;1.00;;;;;;4913704;29;20491;-73
2021/04/18 05:24:59;;;;;;;5.20;4.70;;;7.30;99.90;;;;;;4912519;29;20452;-72
2021/04/18 05:27:25;;;;;;;7.83;5.47;;;7.30;59.70;;;;;;4913189;29;20874;-73
2021/04/18 05:29:52;;;;;;;5.67;5.10;;;7.20;1.00;;;;;;4914179;29;20524;-73
2021/04/18 05:32:19;;;;;;;5.93;5.07;;;7.10;99.90;;;;;;4913378;29;21012;-74
2021/04/18 05:34:46;;;;;;;7.03;5.60;;;7.20;99.90;;;;;;4914218;29;20540;-73
2021/04/18 05:37:12;;;;;;;5.63;5.13;;;7.10;99.90;;;;;;4912902;29;20851;-73
2021/04/18 05:39:39;;;;;;;6.90;5.20;;;7.10;1.00;;;;;;4913839;29;20475;-73
2021/04/18 05:42:06;;;;;;;5.27;4.70;;;7.10;99.90;;;;;;4916457;29;21031;-74
2021/04/18 05:44:33;;;;;;;6.17;5.57;;;7.00;1.00;;;;;;4917757;29;20459;-72
2021/04/18 05:46:59;;;;;;;6.80;5.50;;;6.90;8.00;;;;;;4916912;29;20516;-73
2021/04/18 05:49:26;;;;;;;6.20;5.60;;;6.80;1.00;;;;;;4917277;29;20477;-73
2021/04/18 05:51:52;;;;;;;9.27;6.60;;;6.90;1.00;;;;;;4917634;29;20491;-72
2021/04/18 05:54:18;;;;;;;9.07;7.37;;;7.00;99.90;;;;;;4917274;29;20535;-74
2021/04/18 05:56:46;;;;;;;6.70;6.10;;;7.20;99.90;;;;;;4916456;29;20467;-71
2021/04/18 05:59:13;;;;;;;6.63;6.03;;;7.20;99.90;;;;;;4916983;29;21323;-72
2021/04/18 06:01:39;;;;;;;7.67;6.90;;;7.20;21.40;;;;;;4917469;29;20464;-71
2021/04/18 06:04:06;;;;;;;7.33;6.10;;;7.30;99.90;;;;;;4916319;29;21004;-71
2021/04/18 06:06:32;;;;;;;7.00;6.27;;;7.30;1.00;;;;;;4916912;29;20499;-71
2021/04/18 06:08:59;;;;;;;7.57;6.80;;;7.30;1.00;;;;;;4916939;29;20491;-72
2021/04/18 06:11:25;;;;;;;7.47;6.67;;;7.30;99.90;;;;;;4917297;29;20579;-73
2021/04/18 06:13:53;;;;;;;6.67;5.80;;;7.40;99.90;;;;;;4917759;29;20540;-73
2021/04/18 06:16:19;;;;;;;5.53;5.00;;;7.20;99.90;;;;;;4916307;29;20961;-73
2021/04/18 06:18:45;;;;;;;8.63;6.50;;;7.30;99.90;;;;;;4917459;29;20539;-72
2021/04/18 06:21:12;;;;;;;6.43;5.83;;;7.20;99.90;;;;;;4916840;29;20534;-73
2021/04/18 06:23:38;;;;;;;7.67;6.20;;;7.20;99.90;;;;;;4920390;29;20548;-74
2021/04/18 06:26:05;;;;;;;7.03;6.33;;;7.30;99.90;;;;;;4916349;29;20511;-74
2021/04/18 06:28:31;;;;;;;7.30;5.57;;;7.30;21.80;;;;;;4917080;29;20484;-73
2021/04/18 06:30:58;;;;;;;8.97;5.90;;;7.50;99.90;;;;;;4916232;29;20508;-69
2021/04/18 06:33:25;;;;;;;7.00;6.30;;;7.50;1.00;;;;;;4917174;29;20531;-74
2021/04/18 06:35:51;;;;;;;7.40;5.80;;;7.60;99.90;;;;;;4915919;29;20465;-72
2021/04/18 06:38:18;;;;;;;7.43;6.13;;;7.80;99.90;;;;;;4915865;29;20536;-72
2021/04/18 06:40:46;;;;;;;7.90;5.77;;;7.80;1.00;;;;;;4916863;29;20484;-73
2021/04/18 06:43:13;;;;;;;8.80;6.57;;;7.90;99.90;;;;;;4915443;29;20961;-73
2021/04/18 06:45:40;;;;;;;7.37;6.20;;;7.90;99.90;;;;;;4916329;29;20448;-72
2021/04/18 06:48:13;;;;;;;8.90;6.80;;;7.90;1.00;;;;;;4916020;29;20547;-72
2021/04/18 06:50:39;;;;;;;6.73;5.80;;;8.00;99.90;;;;;;4916587;29;20587;-72
2021/04/18 06:53:06;;;;;;;6.90;6.20;;;8.10;1.00;;;;;;4915862;29;20449;-72
2021/04/18 06:55:32;;;;;;;6.63;5.93;;;8.10;1.00;;;;;;4915785;29;20495;-72
2021/04/18 06:57:59;;;;;;;7.97;6.70;;;8.00;1.00;;;;;;4915940;29;21041;-73
2021/04/18 07:00:25;;;;;;;7.63;6.83;;;8.00;99.90;;;;;;4916129;29;20464;-70
2021/04/18 07:02:52;;;;;;;7.67;6.83;;;7.80;1.00;;;;;;4915436;29;20884;-72
2021/04/18 07:05:21;;;;;;;8.20;7.40;;;8.00;99.90;;;;;;4915150;29;20515;-72
2021/04/18 07:07:48;;;;;;;7.93;7.03;;;8.00;99.90;;;;;;4915824;29;20449;-72
2021/04/18 07:10:26;;;;;;;8.67;6.57;;;8.20;1.00;;;;;;4915688;29;20481;-71
2021/04/18 07:12:53;;;;;;;7.50;6.73;;;8.30;1.00;;;;;;4916147;29;20559;-73
2021/04/18 07:15:35;;;;;;;9.60;8.00;;;8.20;99.90;;;;;;4915760;29;20540;-72
2021/04/18 07:18:01;;;;;;;9.77;7.33;;;8.00;99.90;;;;;;4915394;29;20804;-72
2021/04/18 07:20:29;;;;;;;8.63;6.17;;;8.00;99.90;;;;;;4916202;29;20833;-73
2021/04/18 07:22:55;;;;;;;9.17;6.40;;;7.90;99.90;;;;;;4915701;29;20539;-69
2021/04/18 07:25:30;;;;;;;9.63;7.10;;;8.00;1.00;;;;;;4916438;29;20540;-71
2021/04/18 07:27:56;;;;;;;9.33;7.77;;;8.50;99.90;;;;;;4914888;29;20466;-68
2021/04/18 07:30:26;;;;;;;7.63;6.80;;;8.60;12.20;;;;;;4915856;29;20480;-72
2021/04/18 07:33:03;;;;;;;10.23;6.97;;;8.50;1.00;;;;;;4916024;29;20904;-73
2021/04/18 07:35:39;;;;;;;6.90;6.20;;;8.50;1.00;;;;;;4915187;29;20555;-71
2021/04/18 07:38:20;;;;;;;9.77;6.67;;;8.50;44.20;;;;;;4914262;29;20484;-72
2021/04/18 07:40:48;;;;;;;7.63;6.70;;;8.40;1.00;;;;;;4915839;29;20523;-74
2021/04/18 07:43:17;;;;;;;7.93;7.13;;;8.30;1.00;;;;;;4914728;29;20456;-72
2021/04/18 07:45:45;;;;;;;8.47;6.90;;;8.20;99.90;;;;;;4914827;29;20824;-73
2021/04/18 07:48:13;;;;;;;11.67;6.30;;;8.40;99.90;;;;;;4914442;29;20448;-71
2021/04/18 07:50:41;;;;;;;7.00;6.20;;;8.40;40.20;;;;;;4914643;29;20810;-72
2021/04/18 07:53:08;;;;;;;9.23;6.57;;;8.20;99.90;;;;;;4914351;29;20511;-72
2021/04/18 07:55:36;;;;;;;11.13;6.80;;;8.00;99.90;;;;;;4915239;29;20491;-72
2021/04/18 07:58:03;;;;;;;7.70;6.00;;;8.30;35.20;;;;;;4914632;29;20541;-71
2021/04/18 08:00:30;;;;;;;6.97;5.80;;;8.30;1.00;;;;;;4905248;29;20464;-72
2021/04/18 08:02:57;;;;;;;6.73;5.93;;;8.50;1.00;;;;;;4915039;29;21197;-67
2021/04/18 08:05:26;;;;;;;8.20;6.60;;;8.20;99.90;;;;;;4915218;29;20540;-68
2021/04/18 08:08:02;;;;;;;8.13;5.97;;;8.30;1.00;;;;;;4915888;29;20499;-70
2021/04/18 08:10:32;;;;;;;6.80;5.73;;;8.60;1.00;;;;;;4916027;29;20543;-72
2021/04/18 08:13:07;;;;;;;7.23;6.40;;;8.60;1.00;;;;;;4915057;29;20805;-67
2021/04/18 08:15:35;;;;;;;7.57;6.87;;;8.40;1.00;;;;;;4911409;29;20527;-71
2021/04/18 08:18:05;;;;;;;10.30;6.40;;;8.50;99.90;;;;;;4911674;29;20477;-71
2021/04/18 08:20:33;;;;;;;6.80;6.03;;;8.30;99.90;;;;;;4915634;29;20951;-71
2021/04/18 08:23:04;;;;;;;10.27;6.10;;;8.40;44.20;;;;;;4916618;29;20535;-69
2021/04/18 08:25:31;;;;;;;7.80;6.53;;;8.10;77.30;;;;;;4915406;29;20512;-71
2021/04/18 08:28:07;;;;;;;8.53;6.50;;;8.10;1.00;;;;;;4914744;29;20444;-69
2021/04/18 08:31:03;;;;;;;8.07;5.00;;;8.20;99.90;;;;;;4915438;29;20528;-74
2021/04/18 08:33:43;;;;;;;7.43;6.20;;;8.60;99.90;;;;;;4915330;29;20589;-74
2021/04/18 08:36:14;;;;;;;9.23;5.37;;;8.50;1.00;;;;;;4909744;29;20457;-72
2021/04/18 08:38:42;;;;;;;6.80;5.30;;;8.70;70.20;;;;;;4914761;29;20587;-72
2021/04/18 08:41:11;;;;;;;7.40;5.13;;;9.00;1.00;;;;;;4914094;29;20563;-74
2021/04/18 08:43:38;;;;;;;8.80;6.20;;;9.20;99.90;;;;;;4915281;29;20453;-74
2021/04/18 08:46:04;;;;;;;8.70;5.90;;;9.90;16.10;;;;;;4913725;29;20551;-74
2021/04/18 08:48:31;;;;;;;7.50;5.03;;;9.50;1.00;;;;;;4914632;29;20531;-73
2021/04/18 08:50:58;;;;;;;7.80;5.87;;;9.40;1.00;;;;;;4914335;29;20488;-70
2021/04/18 08:53:25;;;;;;;9.73;5.77;;;8.90;1.00;;;;;;4914625;29;20503;-72
2021/04/18 08:55:55;;;;;;;6.43;5.80;;;8.90;8.60;;;;;;4914236;29;20448;-71
2021/04/18 08:58:32;;;;;;;9.63;5.30;;;9.10;1.00;;;;;;4914820;29;20448;-71
2021/04/18 09:01:06;;;;;;;8.93;4.60;;;9.30;1.00;;;;;;4914267;29;20484;-70
2021/04/18 09:03:33;;;;;;;5.97;4.20;;;9.20;1.00;;;;;;4914446;29;20492;-71
2021/04/18 09:06:13;;;;;;;7.60;5.17;;;9.40;1.00;;;;;;4914556;29;20507;-70
2021/04/18 09:08:51;;;;;;;7.43;4.70;;;9.40;1.00;;;;;;4920500;29;20543;-72
2021/04/18 09:11:19;;;;;;;5.83;4.63;;;9.40;1.00;;;;;;4911676;29;20563;-71
2021/04/18 09:13:56;;;;;;;7.43;5.20;;;9.50;1.00;;;;;;4924462;29;20451;-71
2021/04/18 09:16:27;;;;;;;5.20;4.30;;;9.60;1.00;;;;;;4917922;29;20487;-71
2021/04/18 09:18:54;;;;;;;6.70;4.17;;;9.70;1.00;;;;;;4918676;29;20448;-74
2021/04/18 09:21:21;;;;;;;7.30;4.20;;;9.80;1.00;;;;;;4917533;29;20496;-70
2021/04/18 09:23:59;;;;;;;5.10;4.57;;;9.80;1.00;;;;;;4918230;29;20461;-75
2021/04/18 09:26:27;;;;;;;5.70;3.87;;;9.60;1.00;;;;;;4917260;29;20531;-74
2021/04/18 09:29:07;;;;;;;6.90;4.63;;;10.00;1.00;;;;;;4917517;29;20448;-73
2021/04/18 09:31:33;;;;;;;13.50;5.90;;;9.60;1.00;;;;;;4909482;29;20575;-71
2021/04/18 09:34:04;;;;;;;6.27;4.90;;;9.40;1.00;;;;;;4916905;29;20452;-67
2021/04/18 09:36:31;;;;;;;7.10;5.23;;;9.20;1.00;;;;;;4918066;29;20468;-70
2021/04/18 09:38:59;;;;;;;8.70;5.57;;;9.50;1.00;;;;;;4915836;29;20859;-67
2021/04/18 09:41:27;;;;;;;6.60;5.30;;;9.40;1.00;;;;;;4917477;29;20516;-69
2021/04/18 09:43:57;;;;;;;6.80;5.50;;;9.60;1.00;;;;;;4914817;29;20460;-72
2021/04/18 09:46:24;;;;;;;8.50;5.70;;;9.90;1.00;;;;;;4927673;29;20538;-71
2021/04/18 09:48:58;;;;;;;7.33;6.00;;;10.00;1.00;;;;;;4914943;29;20487;-73
2021/04/18 09:51:24;;;;;;;9.97;5.37;;;10.20;99.90;;;;;;4915480;29;20567;-71
2021/04/18 09:54:01;;;;;;;9.90;5.33;;;10.50;99.90;;;;;;4915103;29;20471;-72
2021/04/18 09:56:28;;;;;;;10.60;6.07;;;10.10;99.90;;;;;;4914191;29;20466;-71
2021/04/18 09:58:55;;;;;;;8.57;5.47;;;10.10;99.90;;;;;;4916956;29;20471;-71
2021/04/18 10:01:26;;;;;;;8.80;6.33;;;10.40;99.90;;;;;;4916491;29;20464;-73
2021/04/18 10:03:53;;;;;;;7.60;5.27;;;10.50;99.90;;;;;;4904571;29;20456;-74
2021/04/18 10:06:20;;;;;;;5.53;4.93;;;10.00;99.90;;;;;;4916913;29;21385;-74
2021/04/18 10:08:54;;;;;;;6.90;5.53;;;10.20;99.90;;;;;;4917365;29;20456;-73
2021/04/18 10:11:21;;;;;;;9.10;6.80;;;10.00;99.90;;;;;;4917875;29;20492;-71
2021/04/18 10:13:51;;;;;;;8.17;5.60;;;9.90;99.90;;;;;;4926063;29;20449;-74
2021/04/18 10:16:19;;;;;;;7.77;6.00;;;10.00;99.90;;;;;;4930832;29;20602;-73
2021/04/18 10:19:08;;;;;;;7.40;6.57;;;10.40;99.90;;;;;;4932355;29;20463;-73
2021/04/18 10:21:35;;;;;;;9.20;5.40;;;10.50;99.90;;;;;;4928537;29;20471;-71
2021/04/18 10:24:02;;;;;;;10.27;6.07;;;10.20;99.90;;;;;;4928971;29;20993;-72
2021/04/18 10:26:29;;;;;;;9.43;5.30;;;10.20;99.90;;;;;;4927393;29;20453;-72
2021/04/18 10:28:58;;;;;;;7.07;5.43;;;10.60;99.90;;;;;;4927949;29;20549;-72
2021/04/18 10:31:25;;;;;;;9.13;6.50;;;10.70;99.90;;;;;;4926418;29;20520;-72
2021/04/18 10:33:53;;;;;;;9.23;5.77;;;10.50;99.90;;;;;;4923573;29;20460;-71
2021/04/18 10:36:19;;;;;;;11.60;7.03;;;10.40;99.90;;;;;;4916401;29;20802;-71
2021/04/18 10:38:46;;;;;;;8.60;6.70;;;10.60;99.90;;;;;;4915659;29;20889;-72
2021/04/18 10:41:13;;;;;;;7.30;6.00;;;10.60;99.90;;;;;;4915455;29;21072;-74
2021/04/18 10:43:39;;;;;;;9.20;6.50;;;10.90;99.90;;;;;;4914887;29;20543;-71
2021/04/18 10:46:06;;;;;;;10.83;7.10;;;11.40;99.90;;;;;;4914099;29;20512;-71
2021/04/18 10:48:33;;;;;;;7.27;5.80;;;11.00;99.90;;;;;;4915122;29;20488;-75
2021/04/18 10:51:00;;;;;;;9.43;7.40;;;10.90;99.90;;;;;;4913927;29;20449;-68
2021/04/18 10:53:29;;;;;;;9.10;7.00;;;10.80;99.90;;;;;;4914578;29;20456;-71
2021/04/18 10:55:57;;;;;;;10.50;6.30;;;10.50;99.90;;;;;;4914680;29;20449;-72
2021/04/18 10:58:29;;;;;;;10.40;6.20;;;11.10;99.90;;;;;;4913300;29;20468;-71
2021/04/18 11:00:55;;;;;;;8.67;6.70;;;11.30;99.90;;;;;;4911863;29;21033;-69
2021/04/18 11:03:23;;;;;;;7.77;7.07;;;11.20;99.90;;;;;;4916049;29;20471;-71
2021/04/18 11:05:50;;;;;;;10.43;7.70;;;11.00;99.90;;;;;;4911794;29;20465;-71
2021/04/18 11:08:18;;;;;;;9.33;6.10;;;10.90;99.90;;;;;;4913305;29;20448;-71
2021/04/18 11:10:44;;;;;;;8.07;6.97;;;11.00;99.90;;;;;;4910922;29;20461;-73
2021/04/18 11:13:12;;;;;;;9.67;7.07;;;11.10;99.90;;;;;;4908714;29;20564;-72
2021/04/18 11:15:38;;;;;;;7.23;6.40;;;11.00;99.90;;;;;;4906253;29;20568;-72
2021/04/18 11:18:09;;;;;;;9.40;5.70;;;11.20;99.90;;;;;;4912362;29;20921;-70
2021/04/18 11:20:39;;;;;;;14.13;6.47;;;11.30;99.90;;;;;;4913896;29;20456;-71
2021/04/18 11:23:05;;;;;;;9.40;6.80;;;11.40;99.90;;;;;;4912714;29;20544;-71
2021/04/18 11:25:32;;;;;;;8.03;5.90;;;11.60;99.90;;;;;;4912864;29;20456;-71
2021/04/18 11:28:01;;;;;;;9.37;6.77;;;11.30;99.90;;;;;;4914138;29;20544;-69
2021/04/18 11:30:28;;;;;;;7.50;5.50;;;11.50;99.90;;;;;;4913810;29;20461;-73
2021/04/18 11:32:54;;;;;;;16.43;6.80;;;11.10;99.90;;;;;;4913207;29;20492;-72
2021/04/18 11:35:21;;;;;;;8.53;6.40;;;11.10;99.90;;;;;;4912553;29;20502;-73
2021/04/18 11:37:50;;;;;;;10.50;7.07;;;11.00;99.90;;;;;;4912084;29;20793;-74
2021/04/18 11:40:16;;;;;;;11.00;6.30;;;11.00;99.90;;;;;;4911926;29;20488;-75
2021/04/18 11:42:51;;;;;;;6.80;5.83;;;10.90;99.90;;;;;;4913214;29;20464;-72
2021/04/18 11:45:19;;;;;;;7.60;5.90;;;10.90;99.90;;;;;;4907649;29;20716;-74
2021/04/18 11:47:47;;;;;;;10.50;5.93;;;11.30;99.90;;;;;;4913078;29;21009;-75
2021/04/18 11:50:15;;;;;;;6.97;5.50;;;11.00;99.90;;;;;;4911907;29;20483;-73
2021/04/18 11:52:41;;;;;;;8.17;5.90;;;10.80;99.90;;;;;;4912854;29;20515;-72
2021/04/18 11:55:11;;;;;;;9.07;6.10;;;10.80;99.90;;;;;;4910614;29;20465;-73
2021/04/18 11:57:38;;;;;;;5.50;5.00;;;10.90;99.90;;;;;;4912275;29;20463;-74
2021/04/18 12:00:06;;;;;;;6.57;5.47;;;10.80;99.90;;;;;;4910642;29;20456;-74
2021/04/18 12:02:33;;;;;;;6.47;5.87;;;10.90;99.90;;;;;;4909494;29;20453;-75
2021/04/18 12:05:00;;;;;;;7.60;6.50;;;11.20;99.90;;;;;;4891326;29;20950;-71
2021/04/18 12:07:26;;;;;;;6.40;5.67;;;11.40;99.90;;;;;;4903372;29;20461;-75
2021/04/18 12:09:53;;;;;;;8.20;6.30;;;11.20;99.90;;;;;;4911437;29;20460;-76
2021/04/18 12:12:20;;;;;;;10.80;5.30;;;11.30;99.90;;;;;;4902593;29;20582;-76
2021/04/18 12:14:47;;;;;;;8.47;5.83;;;11.40;99.90;;;;;;4910416;29;20485;-74
2021/04/18 12:17:15;;;;;;;6.70;5.50;;;11.50;99.90;;;;;;4909904;29;20495;-75
2021/04/18 12:19:43;;;;;;;9.30;5.90;;;11.50;99.90;;;;;;4909666;29;20512;-77
2021/04/18 12:22:09;;;;;;;9.03;6.30;;;11.20;99.90;;;;;;4909894;29;20477;-76
2021/04/18 12:24:36;;;;;;;8.33;6.37;;;11.20;99.90;;;;;;4910266;29;20942;-76
2021/04/18 12:27:03;;;;;;;8.97;7.20;;;11.30;99.90;;;;;;4910201;29;20456;-76
2021/04/18 12:29:33;;;;;;;6.80;5.27;;;11.50;99.90;;;;;;4910054;29;20543;-75
2021/04/18 12:32:00;;;;;;;8.33;5.30;;;11.60;99.90;;;;;;4909823;29;20481;-69
2021/04/18 12:34:31;;;;;;;6.27;4.70;;;11.90;99.90;;;;;;4911061;29;20489;-73
2021/04/18 12:36:58;;;;;;;7.80;5.37;;;12.20;99.90;;;;;;4912144;29;20544;-71
2021/04/18 12:39:25;;;;;;;7.27;5.63;;;12.20;99.90;;;;;;4911080;29;20460;-74
2021/04/18 12:41:52;;;;;;;8.10;5.43;;;12.50;99.90;;;;;;4912347;29;20499;-72
2021/04/18 12:44:18;;;;;;;6.53;5.90;;;12.30;99.90;;;;;;4910478;29;20448;-74
2021/04/18 12:46:46;;;;;;;7.50;6.20;;;12.10;99.90;;;;;;4911850;29;20455;-72
2021/04/18 12:49:13;;;;;;;11.57;6.50;;;12.00;99.90;;;;;;4911372;29;20856;-74
2021/04/18 12:51:40;;;;;;;9.03;6.00;;;11.50;99.90;;;;;;4911735;29;20847;-74
2021/04/18 12:54:07;;;;;;;7.67;5.90;;;11.20;99.90;;;;;;4911449;29;20547;-72
2021/04/18 12:56:35;;;;;;;8.40;6.30;;;11.70;99.90;;;;;;4897814;29;20452;-71
2021/04/18 12:59:03;;;;;;;8.03;6.77;;;12.10;99.90;;;;;;4905541;29;20453;-72
2021/04/18 13:01:30;;;;;;;8.83;6.10;;;12.00;99.90;;;;;;4910923;29;20492;-71